Time;durP1;ratioP1;P1;durP2;ratioP2;P2;SDS_P1;SDS_P2;PMS_P1;PMS_P2;Temp;Humidity;BMP_temperature;BMP_pressure;BME280_temperature;BME280_humidity;BME280_pressure;Samples;Min_cycle;Max_cycle;Signal;HPM_P1;HPM_P2
2021/07/07 00:00:20;;;;;;;1.15;0.75;;;;;21.80;100984.00;;;;5088959;28;20224;-80
2021/07/07 00:02:48;;;;;;;3.63;1.10;;;;;21.90;100989.00;;;;5071996;28;20202;-80
2021/07/07 00:05:17;;;;;;;0.93;0.60;;;;;21.90;100981.00;;;;5068372;28;20700;-80
2021/07/07 00:07:45;;;;;;;3.33;0.95;;;;;21.90;100988.00;;;;5068856;28;20207;-80
2021/07/07 00:10:14;;;;;;;1.20;0.63;;;;;21.90;100985.00;;;;5074538;28;20205;-80
2021/07/07 00:12:45;;;;;;;1.13;0.60;;;;;21.90;100980.00;;;;5085551;28;20194;-80
2021/07/07 00:15:14;;;;;;;2.13;0.80;;;;;21.90;100980.00;;;;5072927;28;20225;-80
2021/07/07 00:17:42;;;;;;;0.73;0.63;;;;;21.90;100984.00;;;;5074274;28;20203;-80
2021/07/07 00:20:12;;;;;;;1.50;0.70;;;;;21.90;100976.00;;;;5068343;28;20688;-80
2021/07/07 00:22:40;;;;;;;3.92;0.70;;;;;21.90;100985.00;;;;5068658;28;20225;-80
2021/07/07 00:25:09;;;;;;;2.42;0.73;;;;;21.90;100982.00;;;;5068807;28;20199;-79
2021/07/07 00:27:36;;;;;;;4.82;1.10;;;;;21.90;100986.00;;;;5068731;28;20214;-80
2021/07/07 00:30:07;;;;;;;1.25;0.75;;;;;21.80;100986.00;;;;5067242;28;20202;-80
2021/07/07 00:32:34;;;;;;;3.35;1.08;;;;;21.90;100974.00;;;;5067500;28;20699;-80
2021/07/07 00:35:01;;;;;;;1.20;0.80;;;;;21.80;100984.00;;;;5067224;28;20230;-79
2021/07/07 00:37:28;;;;;;;2.65;1.23;;;;;21.80;100979.00;;;;5067386;28;20557;-79
2021/07/07 00:39:56;;;;;;;1.52;0.80;;;;;21.80;100985.00;;;;5068154;28;20203;-80
2021/07/07 00:42:23;;;;;;;2.17;0.90;;;;;21.80;100986.00;;;;5068509;28;20210;-79
2021/07/07 00:44:50;;;;;;;1.25;0.75;;;;;21.70;100984.00;;;;5068185;28;20199;-80
2021/07/07 00:47:19;;;;;;;2.25;0.82;;;;;21.70;100985.00;;;;5067924;28;20194;-79
2021/07/07 00:49:46;;;;;;;1.95;1.05;;;;;21.70;100989.00;;;;5067021;28;20202;-80
2021/07/07 00:52:13;;;;;;;2.67;1.00;;;;;21.70;100992.00;;;;5067573;28;20207;-80
2021/07/07 00:54:41;;;;;;;1.00;0.80;;;;;21.60;100985.00;;;;5067617;28;20210;-80
2021/07/07 00:57:11;;;;;;;1.85;1.00;;;;;21.60;100992.00;;;;5068055;28;20198;-80
2021/07/07 00:59:39;;;;;;;2.85;1.35;;;;;21.60;100984.00;;;;5068742;28;20207;-80
2021/07/07 01:02:09;;;;;;;1.25;0.90;;;;;21.50;100988.00;;;;5068361;28;20203;-79
2021/07/07 01:04:37;;;;;;;1.70;0.68;;;;;21.50;100987.00;;;;5067768;28;20222;-80
2021/07/07 01:07:05;;;;;;;2.03;0.80;;;;;21.50;100980.00;;;;5067633;28;20207;-79
2021/07/07 01:09:32;;;;;;;3.08;1.00;;;;;21.40;100986.00;;;;5067807;28;20209;-80
2021/07/07 01:11:59;;;;;;;1.00;0.80;;;;;21.40;100995.00;;;;5092517;28;20189;-79
2021/07/07 01:14:26;;;;;;;1.40;0.77;;;;;21.40;100993.00;;;;5101959;28;20225;-79
2021/07/07 01:16:54;;;;;;;1.83;0.82;;;;;21.40;100989.00;;;;5073184;28;20568;-80
2021/07/07 01:19:22;;;;;;;1.35;0.80;;;;;21.30;100994.00;;;;5072439;28;20210;-79
2021/07/07 01:21:52;;;;;;;1.77;0.85;;;;;21.30;100988.00;;;;5071249;28;20191;-80
2021/07/07 01:24:21;;;;;;;2.38;1.00;;;;;21.30;100988.00;;;;5071718;28;20612;-80
2021/07/07 01:26:49;;;;;;;2.10;0.93;;;;;21.30;100984.00;;;;5071523;28;20634;-80
2021/07/07 01:29:17;;;;;;;1.98;1.10;;;;;21.20;100985.00;;;;5080228;28;20194;-78
2021/07/07 01:31:45;;;;;;;1.60;0.90;;;;;21.20;100974.00;;;;5071289;28;20202;-79
2021/07/07 01:34:12;;;;;;;1.40;0.90;;;;;21.20;100979.00;;;;5071934;28;20226;-79
2021/07/07 01:36:40;;;;;;;1.10;0.90;;;;;21.20;100969.00;;;;5070943;28;20209;-79
2021/07/07 01:39:10;;;;;;;1.33;0.60;;;;;21.10;100979.00;;;;5074708;28;20652;-79
2021/07/07 01:41:37;;;;;;;2.10;0.73;;;;;21.10;100972.00;;;;5077693;28;20206;-79
2021/07/07 01:44:06;;;;;;;4.20;1.02;;;;;21.10;100969.00;;;;5071160;28;20209;-80
2021/07/07 01:46:33;;;;;;;3.15;1.05;;;;;21.10;100975.00;;;;5071403;28;20199;-79
2021/07/07 01:49:00;;;;;;;1.48;0.80;;;;;21.10;100975.00;;;;5074918;28;20202;-79
2021/07/07 01:51:28;;;;;;;1.65;0.70;;;;;21.00;100980.00;;;;5074031;28;20199;-80
2021/07/07 01:53:55;;;;;;;1.63;0.77;;;;;21.00;100980.00;;;;5070958;28;20669;-79
2021/07/07 01:56:24;;;;;;;2.47;0.90;;;;;21.00;100988.00;;;;5070430;28;20222;-80
2021/07/07 01:58:51;;;;;;;1.80;0.90;;;;;21.00;100989.00;;;;5073948;28;20198;-79
2021/07/07 02:01:18;;;;;;;2.38;1.15;;;;;21.00;100987.00;;;;5086282;28;20747;-79
2021/07/07 02:03:45;;;;;;;1.45;0.90;;;;;21.00;100988.00;;;;5088271;28;20213;-80
2021/07/07 02:06:13;;;;;;;2.67;1.08;;;;;21.00;100985.00;;;;5070750;28;20222;-80
2021/07/07 02:08:40;;;;;;;1.10;0.80;;;;;21.00;100987.00;;;;5071378;28;20199;-80
2021/07/07 02:11:08;;;;;;;1.80;0.98;;;;;20.90;100986.00;;;;5070753;28;20210;-79
2021/07/07 02:13:36;;;;;;;1.58;1.08;;;;;20.90;100986.00;;;;5070924;28;20202;-79
2021/07/07 02:16:04;;;;;;;1.02;0.68;;;;;20.90;100989.00;;;;5070060;28;20222;-79
2021/07/07 02:18:32;;;;;;;2.03;0.90;;;;;20.90;100989.00;;;;5070987;28;20198;-80
2021/07/07 02:20:59;;;;;;;1.00;0.70;;;;;20.90;100982.00;;;;5088041;28;20669;-80
2021/07/07 02:23:27;;;;;;;1.67;1.00;;;;;20.90;100985.00;;;;5091157;28;20217;-79
2021/07/07 02:25:55;;;;;;;2.28;1.17;;;;;20.90;100985.00;;;;5073030;28;20207;-80
2021/07/07 02:28:24;;;;;;;2.75;0.93;;;;;20.90;100981.00;;;;5070297;28;20199;-80
2021/07/07 02:30:54;;;;;;;3.03;0.88;;;;;20.90;100984.00;;;;5069455;28;20206;-79
2021/07/07 02:33:22;;;;;;;3.03;1.00;;;;;20.90;100983.00;;;;5070565;28;20245;-79
2021/07/07 02:35:49;;;;;;;1.63;0.90;;;;;20.90;100982.00;;;;5070019;28;20226;-80
2021/07/07 02:38:19;;;;;;;1.70;0.95;;;;;20.90;100987.00;;;;5083376;28;20252;-80
2021/07/07 02:40:47;;;;;;;1.20;1.00;;;;;20.90;100986.00;;;;5084496;28;20190;-80
2021/07/07 02:43:14;;;;;;;1.20;0.77;;;;;21.00;100985.00;;;;5076206;28;20210;-79
2021/07/07 02:45:43;;;;;;;2.47;1.42;;;;;21.00;100992.00;;;;5070061;28;20195;-79
2021/07/07 02:48:13;;;;;;;2.45;1.15;;;;;21.00;100985.00;;;;5070497;28;20199;-79
2021/07/07 02:50:41;;;;;;;2.13;0.77;;;;;21.00;100983.00;;;;5080241;28;20209;-79
2021/07/07 02:53:10;;;;;;;1.05;0.82;;;;;21.00;100982.00;;;;5088899;28;20221;-80
2021/07/07 02:55:37;;;;;;;2.80;1.42;;;;;21.00;100984.00;;;;5089875;28;20225;-80
2021/07/07 02:58:05;;;;;;;1.30;0.75;;;;;21.00;100985.00;;;;5087308;28;20202;-79
2021/07/07 03:00:34;;;;;;;1.42;0.73;;;;;21.00;100987.00;;;;5071822;28;20199;-80
2021/07/07 03:03:03;;;;;;;0.90;0.68;;;;;21.00;100990.00;;;;5069084;28;20637;-79
2021/07/07 03:05:35;;;;;;;1.05;0.90;;;;;21.00;100985.00;;;;5069307;28;20219;-79
2021/07/07 03:08:02;;;;;;;1.38;0.80;;;;;21.00;100981.00;;;;5069027;28;20649;-78
2021/07/07 03:10:30;;;;;;;1.50;0.80;;;;;21.00;100985.00;;;;5086081;28;20687;-79
2021/07/07 03:12:57;;;;;;;1.15;0.82;;;;;21.00;100985.00;;;;5087014;28;20209;-80
2021/07/07 03:15:26;;;;;;;1.38;1.15;;;;;21.00;100984.00;;;;5089157;28;20234;-79
2021/07/07 03:17:53;;;;;;;1.83;0.85;;;;;21.00;100989.00;;;;5079754;28;20229;-80
2021/07/07 03:20:21;;;;;;;1.42;0.95;;;;;21.00;100985.00;;;;5068578;28;20575;-79
2021/07/07 03:22:50;;;;;;;1.23;1.10;;;;;21.00;100990.00;;;;5068600;28;20199;-80
2021/07/07 03:25:17;;;;;;;1.00;0.85;;;;;21.00;100993.00;;;;5068745;28;20203;-80
2021/07/07 03:27:45;;;;;;;2.33;1.00;;;;;21.00;100989.00;;;;5068877;28;20209;-79
2021/07/07 03:30:13;;;;;;;1.80;0.90;;;;;21.00;100995.00;;;;5080369;28;20538;-79
2021/07/07 03:32:40;;;;;;;1.77;1.33;;;;;21.00;101001.00;;;;5086763;28;20205;-80
2021/07/07 03:35:09;;;;;;;1.38;1.00;;;;;21.00;101003.00;;;;5076449;28;20230;-80
2021/07/07 03:37:37;;;;;;;2.55;1.15;;;;;21.00;100999.00;;;;5068457;28;20209;-80
2021/07/07 03:40:08;;;;;;;1.60;0.95;;;;;20.90;100999.00;;;;5068371;28;20520;-80
2021/07/07 03:42:35;;;;;;;3.28;0.98;;;;;21.00;101006.00;;;;5068350;28;20580;-80
2021/07/07 03:45:03;;;;;;;2.08;1.25;;;;;21.00;101007.00;;;;5068685;28;20196;-79
2021/07/07 03:47:30;;;;;;;1.15;0.90;;;;;21.00;101008.00;;;;5068932;28;20253;-79
2021/07/07 03:49:57;;;;;;;1.52;1.10;;;;;21.00;101012.00;;;;5069008;28;20206;-79
2021/07/07 03:52:24;;;;;;;1.30;1.20;;;;;21.00;101012.00;;;;5069468;28;20191;-79
2021/07/07 03:54:52;;;;;;;2.13;1.50;;;;;21.00;101009.00;;;;5068656;28;20195;-79
2021/07/07 03:57:20;;;;;;;3.13;0.88;;;;;20.90;101015.00;;;;5068586;28;20222;-80
2021/07/07 03:59:47;;;;;;;1.38;1.23;;;;;21.00;101014.00;;;;5068776;28;20222;-79
2021/07/07 04:02:15;;;;;;;1.58;1.13;;;;;21.00;101012.00;;;;5069439;28;20207;-80
2021/07/07 04:04:43;;;;;;;2.42;1.13;;;;;20.90;101019.00;;;;5074194;28;20260;-80
2021/07/07 04:07:11;;;;;;;2.03;1.38;;;;;20.90;101028.00;;;;5088163;28;20224;-79
2021/07/07 04:09:38;;;;;;;1.70;1.02;;;;;21.00;101028.00;;;;5082206;28;20199;-80
2021/07/07 04:12:06;;;;;;;2.53;1.23;;;;;21.00;101027.00;;;;5074641;28;20711;-80
2021/07/07 04:14:35;;;;;;;2.72;1.10;;;;;20.90;101033.00;;;;5087268;28;20625;-80
2021/07/07 04:17:02;;;;;;;2.38;1.35;;;;;21.00;101026.00;;;;5075935;28;20218;-79
2021/07/07 04:19:30;;;;;;;3.67;1.60;;;;;21.00;101030.00;;;;5067873;28;20198;-80
2021/07/07 04:21:57;;;;;;;2.00;1.48;;;;;21.00;101036.00;;;;5068898;28;20218;-79
2021/07/07 04:24:25;;;;;;;2.08;1.65;;;;;21.00;101036.00;;;;5069506;28;20202;-80
2021/07/07 04:26:52;;;;;;;2.13;1.50;;;;;21.00;101025.00;;;;5068851;28;20205;-79
2021/07/07 04:29:20;;;;;;;2.00;1.60;;;;;21.00;101035.00;;;;5071464;28;20210;-79
2021/07/07 04:31:48;;;;;;;3.47;1.80;;;;;21.00;101037.00;;;;5086337;28;20201;-80
2021/07/07 04:34:16;;;;;;;1.92;1.73;;;;;21.00;101043.00;;;;5079458;28;20226;-79
2021/07/07 04:36:43;;;;;;;1.83;1.55;;;;;21.00;101041.00;;;;5086872;28;20243;-78
2021/07/07 04:39:10;;;;;;;3.42;1.85;;;;;21.00;101049.00;;;;5087521;28;20194;-79
2021/07/07 04:41:38;;;;;;;2.22;1.20;;;;;21.10;101051.00;;;;5085627;28;20202;-80
2021/07/07 04:44:06;;;;;;;2.45;1.77;;;;;21.10;101057.00;;;;5085829;28;20205;-80
2021/07/07 04:46:33;;;;;;;1.98;1.73;;;;;21.10;101058.00;;;;5079749;28;20205;-79
2021/07/07 04:49:01;;;;;;;1.52;1.27;;;;;21.10;101065.00;;;;5091764;28;20194;-80
2021/07/07 04:51:30;;;;;;;3.83;2.17;;;;;21.10;101071.00;;;;5090042;28;20217;-79
2021/07/07 04:53:57;;;;;;;2.55;1.63;;;;;21.20;101062.00;;;;5090017;28;20570;-80
2021/07/07 04:56:25;;;;;;;2.75;1.90;;;;;21.20;101072.00;;;;5088413;28;20210;-80
2021/07/07 04:58:52;;;;;;;3.17;1.70;;;;;21.20;101068.00;;;;5086829;28;20205;-80
2021/07/07 05:01:19;;;;;;;3.13;1.67;;;;;21.20;101071.00;;;;5092454;28;20193;-80
2021/07/07 05:03:46;;;;;;;3.08;2.03;;;;;21.30;101068.00;;;;5090164;28;20204;-80
2021/07/07 05:06:15;;;;;;;3.58;1.42;;;;;21.30;101079.00;;;;5086525;28;20214;-80
2021/07/07 05:08:42;;;;;;;2.72;1.98;;;;;21.30;101079.00;;;;5082584;28;20229;-79
2021/07/07 05:11:11;;;;;;;1.50;1.40;;;;;21.30;101076.00;;;;5087046;28;20568;-80
2021/07/07 05:13:39;;;;;;;2.08;1.92;;;;;21.40;101077.00;;;;5084633;28;20252;-80
2021/07/07 05:16:06;;;;;;;4.28;1.85;;;;;21.40;101085.00;;;;5087086;28;20249;-80
2021/07/07 05:18:34;;;;;;;1.90;1.55;;;;;21.40;101086.00;;;;5084915;28;20687;-80
2021/07/07 05:21:01;;;;;;;2.50;2.00;;;;;21.50;101084.00;;;;5089033;28;20214;-80
2021/07/07 05:23:33;;;;;;;4.47;2.03;;;;;21.50;101072.00;;;;5082887;28;20199;-79
2021/07/07 05:26:01;;;;;;;2.72;2.15;;;;;21.50;101082.00;;;;5085913;28;20209;-80
2021/07/07 05:28:28;;;;;;;2.08;1.45;;;;;21.50;101086.00;;;;5074538;28;20257;-80
2021/07/07 05:31:03;;;;;;;2.15;1.73;;;;;21.60;101081.00;;;;5076159;28;20202;-81
2021/07/07 05:33:34;;;;;;;1.98;1.80;;;;;21.60;101082.00;;;;5076108;28;20341;-82
2021/07/07 05:36:02;;;;;;;2.25;2.03;;;;;21.60;101078.00;;;;5082701;28;20244;-80
2021/07/07 05:38:31;;;;;;;1.95;1.73;;;;;21.70;101080.00;;;;5090073;28;20190;-79
2021/07/07 05:40:58;;;;;;;4.20;1.80;;;;;21.70;101081.00;;;;5089431;28;20186;-81
2021/07/07 05:43:26;;;;;;;2.10;1.77;;;;;21.70;101086.00;;;;5085893;28;20191;-79
2021/07/07 05:45:53;;;;;;;4.70;2.35;;;;;21.80;101081.00;;;;5089602;28;20225;-80
2021/07/07 05:48:20;;;;;;;2.17;1.90;;;;;21.90;101082.00;;;;5083815;28;20704;-80
2021/07/07 05:50:48;;;;;;;2.05;1.85;;;;;21.90;101092.00;;;;5083714;28;20191;-80
2021/07/07 05:53:15;;;;;;;4.25;1.60;;;;;22.00;101087.00;;;;5071960;28;20226;-80
2021/07/07 05:55:43;;;;;;;3.83;2.58;;;;;22.00;101089.00;;;;5074231;28;20194;-80
2021/07/07 05:58:11;;;;;;;2.10;1.48;;;;;22.10;101088.00;;;;5092137;28;20225;-81
2021/07/07 06:00:39;;;;;;;3.90;2.08;;;;;22.20;101086.00;;;;5087034;28;20213;-81
2021/07/07 06:03:06;;;;;;;3.28;2.08;;;;;22.20;101094.00;;;;5072075;28;20253;-79
2021/07/07 06:05:33;;;;;;;7.13;1.88;;;;;22.30;101088.00;;;;5075730;28;20214;-79
2021/07/07 06:08:01;;;;;;;2.72;1.55;;;;;22.30;101092.00;;;;5073202;28;20234;-81
2021/07/07 06:10:28;;;;;;;6.68;2.17;;;;;22.40;101090.00;;;;5071377;28;20281;-80
2021/07/07 06:12:57;;;;;;;2.15;1.95;;;;;22.40;101095.00;;;;5070891;28;20210;-80
2021/07/07 06:15:26;;;;;;;1.83;1.70;;;;;22.50;101094.00;;;;5073096;28;20209;-80
2021/07/07 06:17:53;;;;;;;2.25;1.80;;;;;22.50;101102.00;;;;5080627;28;20616;-80
2021/07/07 06:20:21;;;;;;;2.53;1.83;;;;;22.60;101108.00;;;;5077205;28;20195;-80
2021/07/07 06:22:48;;;;;;;4.38;1.75;;;;;22.70;101116.00;;;;5073864;28;20199;-80
2021/07/07 06:25:16;;;;;;;3.40;1.95;;;;;22.70;101119.00;;;;5070382;28;20198;-80
2021/07/07 06:27:44;;;;;;;4.18;1.70;;;;;22.80;101121.00;;;;5070313;28;20569;-80
2021/07/07 06:30:15;;;;;;;2.47;1.90;;;;;22.80;101126.00;;;;5087746;28;20198;-80
2021/07/07 06:32:44;;;;;;;8.68;2.22;;;;;22.90;101124.00;;;;5089888;28;20206;-80
2021/07/07 06:35:12;;;;;;;5.53;2.28;;;;;22.90;101122.00;;;;5031529;28;20558;-81
2021/07/07 06:37:39;;;;;;;1.83;1.50;;;;;23.00;101129.00;;;;5028138;28;20224;-81
2021/07/07 06:40:07;;;;;;;2.72;1.60;;;;;23.10;101137.00;;;;5040351;28;20690;-80
2021/07/07 06:42:35;;;;;;;1.75;1.60;;;;;23.10;101133.00;;;;5032406;28;20227;-79
2021/07/07 06:45:04;;;;;;;2.83;2.10;;;;;23.20;101138.00;;;;5030134;28;20200;-80
2021/07/07 06:47:33;;;;;;;5.90;1.85;;;;;23.20;101142.00;;;;5043275;28;20211;-81
2021/07/07 06:50:01;;;;;;;3.88;1.75;;;;;23.30;101139.00;;;;5049187;28;20593;-79
2021/07/07 06:52:28;;;;;;;3.55;2.10;;;;;23.40;101134.00;;;;5030296;28;20208;-80
2021/07/07 06:54:56;;;;;;;3.28;1.65;;;;;23.50;101134.00;;;;5031160;28;20204;-81
2021/07/07 06:57:23;;;;;;;1.42;1.20;;;;;23.50;101140.00;;;;5044593;28;20231;-79
2021/07/07 06:59:50;;;;;;;1.85;1.25;;;;;23.60;101132.00;;;;5035307;28;20207;-79
2021/07/07 07:02:17;;;;;;;1.92;1.30;;;;;23.70;101141.00;;;;5031743;28;20208;-78
2021/07/07 07:04:46;;;;;;;2.78;1.67;;;;;23.80;101145.00;;;;5029738;28;20216;-79
2021/07/07 07:07:13;;;;;;;4.93;1.95;;;;;23.90;101146.00;;;;5031733;28;20201;-79
2021/07/07 07:09:40;;;;;;;4.55;1.95;;;;;23.90;101148.00;;;;5048470;28;20212;-78
2021/07/07 07:12:08;;;;;;;4.15;1.80;;;;;24.00;101145.00;;;;5042168;28;20690;-81
2021/07/07 07:14:35;;;;;;;3.47;1.52;;;;;24.00;101157.00;;;;5054186;28;20203;-81
2021/07/07 07:17:03;;;;;;;1.83;1.52;;;;;24.10;101171.00;;;;5061584;28;20231;-82
2021/07/07 07:19:30;;;;;;;3.80;2.00;;;;;24.10;101171.00;;;;5031550;28;20210;-81
2021/07/07 07:21:58;;;;;;;3.60;1.90;;;;;24.10;101175.00;;;;5041534;28;20193;-82
2021/07/07 07:24:30;;;;;;;5.03;2.22;;;;;24.10;101177.00;;;;5049304;28;20199;-82
2021/07/07 07:26:57;;;;;;;4.10;1.60;;;;;24.10;101172.00;;;;5036113;28;20231;-82
2021/07/07 07:29:25;;;;;;;3.20;1.60;;;;;24.10;101180.00;;;;5035972;28;20730;-83
2021/07/07 07:31:52;;;;;;;2.35;1.35;;;;;24.10;101191.00;;;;5041471;28;20196;-82
2021/07/07 07:34:19;;;;;;;4.72;1.27;;;;;24.10;101186.00;;;;5058028;28;20219;-81
2021/07/07 07:36:49;;;;;;;2.53;1.52;;;;;24.10;101186.00;;;;5078524;28;20218;-81
2021/07/07 07:39:21;;;;;;;2.70;1.48;;;;;24.20;101182.00;;;;5075078;28;20673;-81
2021/07/07 07:41:49;;;;;;;2.55;1.15;;;;;24.30;101195.00;;;;5075193;28;20210;-81
2021/07/07 07:44:18;;;;;;;4.45;1.35;;;;;24.20;101197.00;;;;5075190;28;20236;-82
2021/07/07 07:46:46;;;;;;;5.57;1.60;;;;;24.40;101196.00;;;;5076789;28;20207;-82
2021/07/07 07:49:14;;;;;;;4.65;1.70;;;;;24.40;101186.00;;;;5087971;28;20202;-82
2021/07/07 07:51:41;;;;;;;3.15;1.60;;;;;24.50;101194.00;;;;5075223;28;20608;-80
2021/07/07 07:54:09;;;;;;;4.60;1.63;;;;;24.60;101195.00;;;;5088610;28;20191;-80
2021/07/07 07:56:37;;;;;;;3.40;1.50;;;;;24.60;101189.00;;;;5076706;28;20210;-80
2021/07/07 07:59:05;;;;;;;3.38;1.80;;;;;24.80;101191.00;;;;5083390;28;20195;-81
2021/07/07 08:01:34;;;;;;;3.00;1.60;;;;;24.90;101195.00;;;;5071544;28;20203;-81
2021/07/07 08:04:01;;;;;;;2.65;1.58;;;;;25.00;101189.00;;;;5078360;28;20248;-81
2021/07/07 08:06:29;;;;;;;2.42;1.60;;;;;25.10;101192.00;;;;5070805;28;20219;-80
2021/07/07 08:08:57;;;;;;;2.42;1.95;;;;;25.20;101195.00;;;;5072668;28;20202;-81
2021/07/07 08:11:24;;;;;;;3.13;1.58;;;;;25.30;101191.00;;;;5082373;28;20261;-81
2021/07/07 08:13:53;;;;;;;1.88;1.60;;;;;25.40;101197.00;;;;5082999;28;20213;-81
2021/07/07 08:16:20;;;;;;;3.35;1.30;;;;;25.50;101197.00;;;;5076733;28;20289;-80
2021/07/07 08:18:47;;;;;;;13.48;1.52;;;;;25.50;101201.00;;;;5073836;28;20203;-80
2021/07/07 08:21:15;;;;;;;3.05;1.38;;;;;25.60;101198.00;;;;5069041;28;20199;-79
2021/07/07 08:23:42;;;;;;;1.77;1.33;;;;;25.60;101203.00;;;;5069531;28;20199;-80
2021/07/07 08:26:10;;;;;;;5.28;1.90;;;;;25.70;101204.00;;;;5068227;28;20202;-80
2021/07/07 08:28:37;;;;;;;2.22;1.30;;;;;25.70;101210.00;;;;5067792;28;20207;-80
2021/07/07 08:31:06;;;;;;;1.88;0.82;;;;;25.70;101210.00;;;;5068430;28;20199;-81
2021/07/07 08:33:33;;;;;;;4.50;1.17;;;;;25.80;101210.00;;;;5071378;28;20234;-80
2021/07/07 08:36:00;;;;;;;2.83;1.17;;;;;25.80;101213.00;;;;5077226;28;20203;-81
2021/07/07 08:38:28;;;;;;;3.22;1.20;;;;;25.90;101212.00;;;;5070754;28;20230;-80
2021/07/07 08:40:55;;;;;;;3.60;1.00;;;;;26.10;101212.00;;;;5070585;28;20207;-81
2021/07/07 08:43:24;;;;;;;1.65;1.05;;;;;26.20;101203.00;;;;5072295;28;20195;-80
2021/07/07 08:45:54;;;;;;;2.42;0.90;;;;;26.30;101217.00;;;;5073182;28;20195;-80
2021/07/07 08:48:23;;;;;;;1.90;1.00;;;;;26.40;101224.00;;;;5072035;28;20217;-80
2021/07/07 08:50:53;;;;;;;1.70;1.30;;;;;26.50;101223.00;;;;5085060;28;20678;-79
2021/07/07 08:53:20;;;;;;;3.35;1.17;;;;;26.50;101231.00;;;;5085690;28;20198;-79
2021/07/07 08:55:48;;;;;;;3.67;1.27;;;;;26.50;101228.00;;;;5073862;28;20248;-79
2021/07/07 08:58:15;;;;;;;2.70;1.70;;;;;26.50;101228.00;;;;5076077;28;20226;-79
2021/07/07 09:00:42;;;;;;;2.97;1.60;;;;;26.60;101244.00;;;;5072341;28;20207;-79
2021/07/07 09:03:12;;;;;;;1.83;1.10;;;;;26.60;101233.00;;;;5068388;28;20207;-79
2021/07/07 09:05:56;;;;;;;2.47;1.10;;;;;26.60;101238.00;;;;5079344;28;20236;-79
2021/07/07 09:08:25;;;;;;;2.30;1.30;;;;;26.70;101236.00;;;;5081278;28;20577;-80
2021/07/07 09:10:53;;;;;;;2.53;1.00;;;;;26.80;101245.00;;;;5083286;28;20205;-80
2021/07/07 09:13:22;;;;;;;2.03;1.42;;;;;26.90;101250.00;;;;5080243;28;20209;-84
2021/07/07 09:15:49;;;;;;;3.83;1.38;;;;;26.90;101252.00;;;;5089399;28;20210;-83
2021/07/07 09:18:21;;;;;;;2.03;1.40;;;;;26.80;101256.00;;;;5084058;28;20227;-84
2021/07/07 09:20:51;;;;;;;3.45;1.23;;;;;26.80;101250.00;;;;5095179;28;20204;-84
2021/07/07 09:23:21;;;;;;;3.92;2.15;;;;;26.80;101258.00;;;;5091213;28;20209;-85
2021/07/07 09:25:54;;;;;;;5.88;1.40;;;;;26.80;101254.00;;;;5091062;28;20201;-82
2021/07/07 09:28:24;;;;;;;2.35;1.58;;;;;26.90;101262.00;;;;5083917;28;20199;-84
2021/07/07 09:30:53;;;;;;;2.72;1.50;;;;;26.90;101263.00;;;;5070980;28;20206;-86
2021/07/07 09:33:22;;;;;;;5.90;1.48;;;;;26.90;101258.00;;;;5075248;28;20229;-87
2021/07/07 09:35:51;;;;;;;4.55;1.42;;;;;26.90;101266.00;;;;5081715;28;20198;-84
2021/07/07 09:38:18;;;;;;;4.22;1.83;;;;;26.90;101275.00;;;;5091538;28;20226;-84
2021/07/07 09:40:46;;;;;;;5.55;1.85;;;;;26.80;101279.00;;;;5091976;28;20198;-85
2021/07/07 09:43:14;;;;;;;2.45;1.48;;;;;26.80;101274.00;;;;5081492;28;20207;-81
2021/07/07 09:45:47;;;;;;;3.22;1.40;;;;;26.70;101277.00;;;;5088971;28;20205;-81
2021/07/07 09:48:16;;;;;;;3.55;1.40;;;;;26.70;101280.00;;;;5072270;28;20198;-82
2021/07/07 09:50:44;;;;;;;5.65;2.03;;;;;26.70;101289.00;;;;5072748;28;20191;-81
2021/07/07 09:53:14;;;;;;;2.65;1.70;;;;;26.70;101282.00;;;;5071631;28;20199;-82
2021/07/07 09:55:42;;;;;;;3.38;1.40;;;;;26.70;101296.00;;;;5084113;28;20691;-83
2021/07/07 09:58:10;;;;;;;2.10;1.50;;;;;26.60;101292.00;;;;5077575;28;20218;-83
2021/07/07 10:00:40;;;;;;;5.30;1.55;;;;;26.60;101297.00;;;;5085972;28;20210;-85
2021/07/07 10:03:08;;;;;;;2.13;1.48;;;;;26.60;101296.00;;;;5086065;28;20206;-81
2021/07/07 10:05:41;;;;;;;2.70;1.38;;;;;26.60;101294.00;;;;5076473;28;20680;-81
2021/07/07 10:08:09;;;;;;;4.30;1.30;;;;;26.60;101291.00;;;;5084869;28;20221;-79
2021/07/07 10:10:38;;;;;;;2.38;1.48;;;;;26.60;101305.00;;;;5086211;28;20194;-79
2021/07/07 10:13:09;;;;;;;2.40;1.67;;;;;26.60;101307.00;;;;5094546;28;20233;-80
2021/07/07 10:15:37;;;;;;;4.60;1.55;;;;;26.60;101301.00;;;;5083833;28;20660;-79
2021/07/07 10:18:06;;;;;;;4.20;2.00;;;;;26.60;101307.00;;;;5088625;28;20229;-82
2021/07/07 10:20:34;;;;;;;3.35;1.40;;;;;26.50;101310.00;;;;5083643;28;20202;-80
2021/07/07 10:23:04;;;;;;;3.63;1.98;;;;;26.50;101307.00;;;;5085609;28;20209;-82
2021/07/07 10:25:33;;;;;;;2.00;1.50;;;;;26.50;101307.00;;;;5075302;28;20202;-80
2021/07/07 10:28:05;;;;;;;4.68;1.83;;;;;26.40;101309.00;;;;5073562;28;20209;-79
2021/07/07 10:30:49;;;;;;;8.93;2.17;;;;;26.30;101318.00;;;;5081460;28;20198;-78
2021/07/07 10:33:17;;;;;;;2.05;1.38;;;;;26.40;101311.00;;;;5069950;28;20268;-80
2021/07/07 10:35:45;;;;;;;4.97;1.65;;;;;26.40;101321.00;;;;5082729;28;20205;-80
2021/07/07 10:38:13;;;;;;;2.58;1.50;;;;;26.40;101318.00;;;;5080610;28;20226;-81
2021/07/07 10:40:48;;;;;;;1.60;1.40;;;;;26.40;101329.00;;;;5073513;28;20205;-82
2021/07/07 10:43:27;;;;;;;1.52;1.20;;;;;26.30;101322.00;;;;5078298;28;20197;-83
2021/07/07 10:45:55;;;;;;;2.42;1.38;;;;;26.40;101326.00;;;;5085454;28;20194;-80
2021/07/07 10:48:31;;;;;;;3.63;1.70;;;;;26.30;101331.00;;;;5079994;28;20198;-79
2021/07/07 10:51:00;;;;;;;3.05;1.10;;;;;26.40;101328.00;;;;5082883;28;20198;-79
2021/07/07 10:53:31;;;;;;;3.80;1.63;;;;;26.40;101321.00;;;;5077226;28;20536;-80
2021/07/07 10:56:00;;;;;;;3.90;1.25;;;;;26.50;101321.00;;;;5070219;28;20625;-80
2021/07/07 10:58:32;;;;;;;1.33;1.15;;;;;26.60;101319.00;;;;5071085;28;20339;-82
2021/07/07 11:01:00;;;;;;;2.05;1.30;;;;;26.70;101324.00;;;;5079103;28;20687;-80
2021/07/07 11:03:33;;;;;;;2.58;1.30;;;;;26.80;101318.00;;;;5081809;28;20209;-80
2021/07/07 11:06:28;;;;;;;5.13;1.80;;;;;26.90;101321.00;;;;5070375;28;20223;-81
2021/07/07 11:09:11;;;;;;;2.28;1.50;;;;;27.00;101325.00;;;;5066986;28;20724;-80
2021/07/07 11:11:39;;;;;;;3.40;1.60;;;;;27.30;101332.00;;;;5076629;28;20202;-81
2021/07/07 11:14:16;;;;;;;1.90;1.08;;;;;27.30;101327.00;;;;5073131;28;20222;-83
2021/07/07 11:16:51;;;;;;;2.25;1.30;;;;;27.50;101327.00;;;;5076957;28;20660;-83
2021/07/07 11:19:37;;;;;;;3.13;1.30;;;;;27.60;101319.00;;;;5072510;28;20234;-83
2021/07/07 11:22:05;;;;;;;2.30;1.30;;;;;27.80;101331.00;;;;5077823;28;20190;-82
2021/07/07 11:24:32;;;;;;;4.30;1.60;;;;;27.90;101344.00;;;;5074351;28;20198;-83
2021/07/07 11:27:02;;;;;;;2.75;1.27;;;;;27.90;101343.00;;;;5079864;28;20202;-85
2021/07/07 11:29:31;;;;;;;4.93;2.03;;;;;27.90;101358.00;;;;5071062;28;20668;-84
2021/07/07 11:31:58;;;;;;;3.90;1.60;;;;;27.90;101356.00;;;;5088927;28;20234;-82
2021/07/07 11:34:25;;;;;;;3.28;1.40;;;;;27.90;101363.00;;;;5089113;28;20226;-82
2021/07/07 11:36:54;;;;;;;2.58;1.60;;;;;27.80;101360.00;;;;5088860;28;20210;-83
2021/07/07 11:39:24;;;;;;;3.95;1.50;;;;;27.80;101366.00;;;;5088605;28;20225;-79
2021/07/07 11:42:04;;;;;;;2.45;2.05;;;;;27.70;101366.00;;;;5077694;28;20202;-81
2021/07/07 11:44:44;;;;;;;5.18;1.50;;;;;27.70;101362.00;;;;5071035;28;20291;-78
2021/07/07 11:47:13;;;;;;;3.63;1.52;;;;;27.80;101365.00;;;;5089766;28;20900;-78
2021/07/07 11:49:40;;;;;;;3.72;1.50;;;;;27.80;101366.00;;;;5088264;28;20206;-78
2021/07/07 11:52:08;;;;;;;1.90;1.60;;;;;27.80;101372.00;;;;5088563;28;20615;-79
2021/07/07 11:54:48;;;;;;;1.98;1.42;;;;;27.70;101373.00;;;;5081739;28;20668;-80
2021/07/07 11:57:15;;;;;;;2.40;1.40;;;;;27.70;101382.00;;;;5085411;28;20657;-78
2021/07/07 11:59:52;;;;;;;2.53;1.50;;;;;27.60;101385.00;;;;5084767;28;20223;-79
2021/07/07 12:02:20;;;;;;;2.70;1.45;;;;;27.60;101384.00;;;;5074142;28;20198;-77
2021/07/07 12:04:47;;;;;;;2.05;1.40;;;;;27.60;101381.00;;;;5075607;28;20697;-77
2021/07/07 12:07:19;;;;;;;1.95;1.73;;;;;27.50;101383.00;;;;5069105;28;20616;-77
2021/07/07 12:09:46;;;;;;;3.05;1.88;;;;;27.50;101390.00;;;;5068266;28;20661;-77
2021/07/07 12:12:14;;;;;;;4.00;1.60;;;;;27.40;101387.00;;;;5083325;28;20199;-77
2021/07/07 12:14:42;;;;;;;1.70;1.60;;;;;27.40;101393.00;;;;5068756;28;20218;-77